Terminal Aerodrome Forecast
Issued by NWS Goodland, KS

Home | Current Version | Previous Version | Text Only | Print | Product List | Glossary On
Versions: 1 2 3 4 5 6 7 8 9 10 11 12 13 14 15 16
000
FTUS43 KGLD 012330
TAFGLD
TAF
KGLD 012330Z 0200/0224 VRB05KT P6SM SCT250
     FM020200 30013G22KT P6SM VCTS BKN060CB
      TEMPO 0202/0206 VRB20G35KT 4SM -TSRA OVC030CB
     FM020900 33017KT P6SM OVC010
     FM021500 34023G30KT P6SM BKN025
     FM021800 32013G19KT P6SM SCT050=

USA.gov is the U.S. government's official web portal to all federal, state and local government web resources and services.